Gouldbusk, Texas
Current Conditions -  °F | °C
As of 6:35 AM on Monday 24 Nov 2014 (Local Time) from KCOM Reporting Station
Clear Clear  
Wind Chill: 36°   Ceiling: Unl
Heat Index: 41°   Visibility: 10mi
Dew Point: 33°   Wind: 8mph
Humidity: 72%   Direction: 330°NNW
Pressure: 30.02"   Gusts: NA
Location:  31.55°N, 99.48°W
Report Text: KCOM 241235Z AUTO 33007KT 10SM CLR 05/00 A3002 RMK AO2 T00500003
Loading
Personal Weather Stations






























Interactive Weather Map New forecast layout! Learn more

10-Day Weather Forecast

Advertisements
Track Severe Weather on mobile